Kane, PA (16735)

4:20 PM EDT on July 22, 2017 (GMT -0400)
Division Street Ext. | | Change Station

Elev 2245 ft 41.70 °N, 78.64 °W | Updated 1 minute ago

Overcast
Overcast
75.6 °F
Feels Like 76 °F
N
2.0
Wind Variable Wind from North
Gusts 3.6 mph

Today
High -- | Low -- °F
--% Chance of Precip.
Yesterday
High -- | Low -- °F
Precip. -- in
Pressure 29.82 in
Visibility 8.0 miles
Clouds Mostly Cloudy 1500 ft
Mostly Cloudy 2300 ft
Heat Index 76 °F
Dew Point 69 °F
Humidity 80%
Rainfall 0.00 in
Snow Depth Not available.
6:00 AM 8:42 PM
Waning Crescent, 0% visible
METAR KBFD 221953Z AUTO 05006KT 8SM BKN015 BKN023 24/21 A2986 RMK AO2 SLP096 T02390211
Pressure 29.82 in
Visibility 8.0 miles
Clouds Mostly Cloudy 1500 ft
Mostly Cloudy 2300 ft
Heat Index 76 °F
Dew Point 69 °F
Humidity 80%
Rainfall 0.00 in
Snow Depth Not available.
6:00 AM 8:42 PM
Waning Crescent, 0% visible
METAR KBFD 221953Z AUTO 05006KT 8SM BKN015 BKN023 24/21 A2986 RMK AO2 SLP096 T02390211

Get Severe Weather Alerts

Thanks for signing up!

Be on the lookout for a verification email in your inbox.

You'll start receiving the daily forecast at 6 AM.

×

10-Day Weather Forecast

Almanac

Astronomy

Jul. 22, 2017 Rise Set
Actual Time
Civil Twilight
Nautical Twilight
Astronomical Twilight
Moon
Length of Visible Light
Length of Day
Tomorrow will be .
, % of the Moon is Illuminated

Today's Extremes

State Highs State Lows

Community

WunderPhotos

Category 6

Welcome to Category 6. This is the collective home for Weather Underground's featured writeups by Dr. Jeff Masters (right), Bob Henson (left), Chris Burt, and other regular contributors.

Nearby

Air Quality

  Air Quality AQ Index Pollutant
Not available.

Snow Depth

Station Depth Elevation

Earthquake Activity

City Distance Mag. Time & Date
Minimum magnitude displayed is 2.5.

Coastal Water Temperatures

Place Temperature

Stations

Nearby Weather Stations

Station Location Temp. Windchill Dew Point Humidity Wind Precip. Elev Updated Type
                   

Watches & Warnings

There are currently no watches in effect.